Kobuk Valley National Park, AK

2:53 PM AKDT op 19 april 2015 (GMT -0800)
Baker Memorial | | Change Station
CLOSE
Current Station
Luchthaven
Location: Kiana,
Geometrische hoogte: 151 ft
Nabije weerstations

Hoogte 151 ft 66.98 °N, 160.44 °W | Updated 52 minutes ago

Overcast
Geheel bewolkt
43 °F
Voelt als 36 °F
N
15
Wind Variabel Wind van oost
Gusts 24 mijl/u

Vandaag
Hoog -- | Laag -- °F
--% Kans op neerslag
Gisteren
Hoog -- | Laag -- °F
Precip. -- inches
6:35 AM 10:47 PM
Nieuwe maan, 2% visible
Druk 29.37 inches
Zicht 10.0 mijlen
Wolken Geheel bewolkt 6000 ft
Gevoelstemperatuur 36 °F
Dauwpunt 30 °F
Vochtigheid 60%
Neerslag 0.00 inches
Dikte sneeuw Niet beschikbaar.
UV 1 van de 12
Pollen Niet beschikbaar.
Luchtkwaliteit Niet beschikbaar.
Flu Activity Sporadic
METAR PAIK 192201Z AUTO 10013G21KT 10SM OVC060 06/M01 A2925 RMK AO2 RAB2145E01 SLP945 P0000 T00611011

More Conditions Fewer Conditions

Druk 29.37 inches
Zicht 10.0 mijlen
Wolken Geheel bewolkt 6000 ft
Gevoelstemperatuur 36 °F
Dauwpunt 30 °F
Vochtigheid 60%
Neerslag 0.00 inches
Dikte sneeuw Niet beschikbaar.
UV 1 van de 12
Pollen Niet beschikbaar.
Luchtkwaliteit Niet beschikbaar.
Flu Activity Sporadic
METAR PAIK 192201Z AUTO 10013G21KT 10SM OVC060 06/M01 A2925 RMK AO2 RAB2145E01 SLP945 P0000 T00611011

More Conditions Fewer Conditions

10-Day Weather Forecast

Almanac

Astronomie

Apr. 19, 2015 Opkomst Ondergang
Werkelijke tijd
Burgerlijke schemering
Nautische schemering
Astronomische schemering
Maan
Golflengte van het zichtbare licht
Daglengte
Tomorrow will be .
, % of the Moon is Illuminated

Extremen vandaag

State Highs State Lows

Community

WunderPhotos

Upload Photos

1,815,009 foto’s ge-upload!

WunderBlogs® & News

Nearby

Luchtkwaliteit

  Luchtkwaliteit LK-index Verontreinigende stof
Not available.

Dikte sneeuw

Station Depth Geometrische hoogte

Aardbevingen

Stad Distance Mag. Time & Date
Minimum magnitude displayed is 2.5.

Watertemperatuur langs de kust

Plaats Temperatuur

Stations

Nabije weerstations

Locatie station Temp. Gevoelstemperatuur Dauwpunt Vochtigheid Wind Precip. Hoogte Geactualiseerd Type